createdAt,value
2022-12-14T00:01:36.887Z,1.50
2022-12-14T00:04:03.730Z,2.33
2022-12-14T00:06:31.262Z,3.08
2022-12-14T00:08:59.473Z,1.70
2022-12-14T00:11:26.416Z,2.08
2022-12-14T00:13:56.926Z,1.55
2022-12-14T00:16:24.610Z,1.80
2022-12-14T00:18:52.590Z,1.17
2022-12-14T00:21:19.794Z,1.92
2022-12-14T00:23:46.795Z,2.03
2022-12-14T00:26:14.580Z,1.20
2022-12-14T00:28:41.916Z,1.45
2022-12-14T00:31:08.637Z,1.50
2022-12-14T00:33:35.539Z,2.67
2022-12-14T00:36:02.595Z,0.60
2022-12-14T00:38:29.409Z,0.93
2022-12-14T00:40:56.261Z,0.55
2022-12-14T00:43:23.564Z,0.85
2022-12-14T00:45:50.673Z,1.08
2022-12-14T00:48:18.304Z,0.80
2022-12-14T00:50:48.648Z,1.38
2022-12-14T00:53:15.645Z,0.88
2022-12-14T00:55:42.887Z,1.20
2022-12-14T00:58:11.290Z,1.35
2022-12-14T01:00:38.054Z,1.10
2022-12-14T01:03:05.114Z,1.13
2022-12-14T01:05:33.790Z,1.00
2022-12-14T01:08:00.267Z,0.75
2022-12-14T01:10:26.747Z,1.15
2022-12-14T01:12:53.350Z,0.88
2022-12-14T01:15:19.817Z,0.85
2022-12-14T01:17:46.300Z,0.80
2022-12-14T01:20:12.890Z,0.40
2022-12-14T01:22:39.357Z,0.30
2022-12-14T01:25:05.981Z,0.57
2022-12-14T01:27:32.450Z,0.38
2022-12-14T01:29:58.952Z,0.68
2022-12-14T01:32:25.450Z,0.60
2022-12-14T01:34:51.938Z,0.88
2022-12-14T01:37:18.569Z,0.98
2022-12-14T01:39:45.106Z,1.10
2022-12-14T01:42:12.362Z,1.00
2022-12-14T01:44:38.892Z,1.30
2022-12-14T01:47:15.041Z,1.02
2022-12-14T01:49:47.319Z,0.77
2022-12-14T01:52:33.308Z,0.82
2022-12-14T01:55:02.733Z,1.45
2022-12-14T01:57:44.896Z,1.10
2022-12-14T02:00:13.293Z,1.20
2022-12-14T02:02:42.040Z,1.20
2022-12-14T02:05:09.425Z,0.88
2022-12-14T02:07:36.266Z,1.33
2022-12-14T02:10:04.669Z,1.40
2022-12-14T02:12:36.678Z,1.30
2022-12-14T02:15:03.432Z,1.20
2022-12-14T02:17:29.888Z,1.20
2022-12-14T02:19:57.686Z,1.65
2022-12-14T02:22:36.543Z,2.53
2022-12-14T02:25:06.108Z,1.23
2022-12-14T02:27:32.557Z,1.20
2022-12-14T02:30:06.792Z,1.65
2022-12-14T02:33:05.900Z,1.00
2022-12-14T02:35:51.338Z,1.48
2022-12-14T02:38:25.716Z,1.35
2022-12-14T02:40:55.229Z,1.88
2022-12-14T02:43:21.806Z,1.58
2022-12-14T02:45:57.506Z,1.83
2022-12-14T02:48:29.630Z,1.35
2022-12-14T02:51:01.160Z,2.00
2022-12-14T02:53:30.949Z,1.20
2022-12-14T02:56:00.153Z,1.40
2022-12-14T02:58:29.149Z,1.33
2022-12-14T03:00:56.489Z,2.30
2022-12-14T03:03:23.013Z,1.92
2022-12-14T03:05:59.830Z,1.25
2022-12-14T03:08:27.765Z,2.67
2022-12-14T03:10:58.632Z,1.80
2022-12-14T03:13:43.535Z,1.92
2022-12-14T03:16:15.667Z,2.50
2022-12-14T03:18:44.898Z,2.05
2022-12-14T03:21:14.909Z,2.53
2022-12-14T03:23:43.341Z,2.22
2022-12-14T03:26:21.389Z,2.53
2022-12-14T03:28:53.282Z,2.55
2022-12-14T03:31:25.656Z,2.95
2022-12-14T03:33:54.933Z,2.78
2022-12-14T03:36:24.545Z,2.95
2022-12-14T03:38:53.527Z,3.00
2022-12-14T03:41:27.446Z,1.98
2022-12-14T03:44:06.770Z,2.50
2022-12-14T03:46:40.247Z,1.75
2022-12-14T03:51:36.421Z,2.22
2022-12-14T03:54:32.568Z,1.75
2022-12-14T03:57:08.060Z,2.83
2022-12-14T03:59:38.898Z,2.08
2022-12-14T04:02:13.971Z,4.00
2022-12-14T04:04:40.669Z,1.83
2022-12-14T04:07:16.805Z,2.08
2022-12-14T04:09:47.642Z,1.75
2022-12-14T04:12:38.376Z,1.75
2022-12-14T04:15:27.034Z,1.23
2022-12-14T04:18:13.645Z,2.08
2022-12-14T04:20:47.109Z,2.17
2022-12-14T04:26:01.502Z,1.20
2022-12-14T04:29:01.832Z,1.98
2022-12-14T04:31:29.660Z,2.40
2022-12-14T04:33:58.103Z,1.88
2022-12-14T04:36:27.926Z,1.73
2022-12-14T04:39:01.153Z,2.47
2022-12-14T04:41:31.094Z,1.67
2022-12-14T04:43:59.764Z,2.50
2022-12-14T04:46:28.233Z,2.20
2022-12-14T04:49:00.343Z,1.80
2022-12-14T04:51:47.352Z,1.90
2022-12-14T04:54:32.300Z,1.80
2022-12-14T04:57:19.591Z,1.77
2022-12-14T04:59:46.675Z,1.83
2022-12-14T05:02:22.375Z,1.75
2022-12-14T05:04:57.773Z,1.10
2022-12-14T05:07:36.549Z,1.25
2022-12-14T05:10:15.092Z,1.63
2022-12-14T05:12:56.809Z,2.08
2022-12-14T05:15:29.052Z,1.63
2022-12-14T05:17:56.034Z,1.33
2022-12-14T05:20:23.463Z,1.83
2022-12-14T05:22:50.204Z,1.20
2022-12-14T05:25:16.782Z,1.42
2022-12-14T05:27:43.323Z,1.73
2022-12-14T05:30:10.208Z,1.45
2022-12-14T05:32:36.701Z,1.35
2022-12-14T05:35:04.033Z,1.48
2022-12-14T05:37:30.538Z,1.15
2022-12-14T05:39:56.995Z,1.40
2022-12-14T05:42:23.474Z,1.70
2022-12-14T05:44:49.989Z,1.52
2022-12-14T05:47:16.623Z,1.80
2022-12-14T05:49:43.463Z,1.63
2022-12-14T05:52:10.063Z,1.33
2022-12-14T05:54:36.683Z,1.77
2022-12-14T05:57:03.563Z,1.55
2022-12-14T05:59:31.057Z,0.95
2022-12-14T06:01:58.074Z,1.42
2022-12-14T06:04:24.918Z,1.92
2022-12-14T06:06:51.946Z,1.73
2022-12-14T06:09:19.497Z,1.83
2022-12-14T06:11:46.576Z,1.20
2022-12-14T06:14:13.706Z,1.40
2022-12-14T06:16:41.534Z,2.42
2022-12-14T06:19:08.454Z,1.40
2022-12-14T06:21:36.130Z,1.55
2022-12-14T06:24:02.946Z,1.35
2022-12-14T06:26:30.615Z,2.63
2022-12-14T06:28:57.432Z,3.58
2022-12-14T06:31:24.925Z,1.70
2022-12-14T06:33:51.819Z,1.52
2022-12-14T06:36:24.075Z,1.98
2022-12-14T06:38:51.108Z,1.77
2022-12-14T06:41:17.683Z,1.33
2022-12-14T06:43:44.195Z,1.67
2022-12-14T06:46:15.429Z,1.75
2022-12-14T06:48:42.444Z,1.98
2022-12-14T06:51:09.257Z,1.65
2022-12-14T06:53:36.405Z,1.23
2022-12-14T06:56:16.411Z,1.23
2022-12-14T06:58:43.357Z,1.40
2022-12-14T07:01:13.432Z,1.63
2022-12-14T07:03:41.362Z,1.45
2022-12-14T07:06:08.510Z,1.40
2022-12-14T07:08:36.406Z,1.92
2022-12-14T07:11:03.955Z,1.40
2022-12-14T07:13:30.806Z,2.00
2022-12-14T07:15:58.435Z,1.52
2022-12-14T07:18:25.529Z,1.30
2022-12-14T07:20:58.815Z,1.75
2022-12-14T07:23:28.031Z,2.67
2022-12-14T07:26:00.257Z,1.50
2022-12-14T07:28:27.971Z,1.75
2022-12-14T07:30:58.655Z,1.30
2022-12-14T07:33:25.636Z,1.45
2022-12-14T07:35:52.453Z,2.58
2022-12-14T07:38:19.193Z,1.55
2022-12-14T07:40:45.672Z,1.48
2022-12-14T07:43:12.205Z,1.50
2022-12-14T07:45:38.743Z,1.92
2022-12-14T07:48:06.612Z,1.40
2022-12-14T07:50:33.091Z,1.70
2022-12-14T07:52:59.807Z,2.17
2022-12-14T07:55:26.317Z,1.23
2022-12-14T07:57:52.947Z,1.50
2022-12-14T08:00:19.565Z,1.38
2022-12-14T08:02:46.158Z,1.17
2022-12-14T08:05:13.032Z,1.38
2022-12-14T08:07:39.584Z,1.65
2022-12-14T08:10:06.488Z,2.10
2022-12-14T08:12:33.166Z,1.48
2022-12-14T08:14:59.612Z,2.28
2022-12-14T08:17:26.070Z,1.73
2022-12-14T08:19:52.545Z,1.58
2022-12-14T08:22:19.045Z,2.05
2022-12-14T08:24:49.513Z,2.03
2022-12-14T08:27:16.299Z,2.55
2022-12-14T08:29:42.836Z,1.70
2022-12-14T08:32:09.284Z,1.67
2022-12-14T08:34:35.759Z,1.85
2022-12-14T08:37:02.202Z,1.80
2022-12-14T08:39:28.681Z,1.20
2022-12-14T08:41:55.540Z,2.33
2022-12-14T08:44:22.023Z,1.40
2022-12-14T08:46:48.518Z,1.85
2022-12-14T08:49:15.058Z,1.30
2022-12-14T08:51:42.067Z,1.48
2022-12-14T08:54:08.564Z,1.13
2022-12-14T08:56:35.046Z,1.13
2022-12-14T08:59:01.768Z,1.20
2022-12-14T09:01:33.628Z,1.52
2022-12-14T09:04:05.092Z,1.65
2022-12-14T09:06:33.547Z,1.63
2022-12-14T09:09:00.027Z,1.80
2022-12-14T09:11:26.510Z,1.75
2022-12-14T09:13:54.224Z,1.55
2022-12-14T09:16:20.911Z,1.20
2022-12-14T09:18:48.023Z,1.85
2022-12-14T09:21:15.025Z,1.85
2022-12-14T09:23:41.759Z,1.75
2022-12-14T09:26:10.598Z,2.60
2022-12-14T09:28:37.745Z,3.10
2022-12-14T09:31:05.708Z,3.10
2022-12-14T09:33:33.025Z,1.73
2022-12-14T09:36:07.286Z,2.10
2022-12-14T09:38:34.874Z,1.90
2022-12-14T09:41:07.081Z,2.05
2022-12-14T09:43:46.674Z,2.75
2022-12-14T09:46:16.306Z,2.95
2022-12-14T09:48:43.482Z,4.32
2022-12-14T09:51:14.053Z,3.72
2022-12-14T09:53:42.152Z,3.05
2022-12-14T09:56:11.117Z,3.90
2022-12-14T09:58:38.153Z,3.85
2022-12-14T10:01:16.610Z,3.58
2022-12-14T10:03:55.533Z,3.80
2022-12-14T10:06:42.712Z,4.50
2022-12-14T10:09:09.186Z,3.47
2022-12-14T10:11:43.227Z,3.67
2022-12-14T10:14:20.083Z,3.58
2022-12-14T10:16:52.458Z,4.30
2022-12-14T10:19:26.081Z,2.33
2022-12-14T10:22:08.969Z,5.18
2022-12-14T10:24:46.513Z,2.93
2022-12-14T10:27:17.650Z,4.35
2022-12-14T10:29:47.690Z,1.85
2022-12-14T10:32:34.458Z,2.28
2022-12-14T10:35:13.886Z,2.55
2022-12-14T10:37:43.134Z,3.40
2022-12-14T10:40:17.442Z,4.47
2022-12-14T10:42:58.253Z,2.40
2022-12-14T10:45:45.213Z,2.53
2022-12-14T10:48:24.752Z,2.45
2022-12-14T10:50:51.218Z,2.97
2022-12-14T10:53:19.457Z,2.08
2022-12-14T10:55:46.238Z,1.50
2022-12-14T10:58:12.742Z,1.75
2022-12-14T11:00:39.498Z,1.25
2022-12-14T11:03:11.670Z,1.88
2022-12-14T11:05:55.830Z,2.58
2022-12-14T11:08:39.255Z,2.97
2022-12-14T11:11:18.446Z,2.58
2022-12-14T11:13:49.506Z,2.10
2022-12-14T11:16:17.904Z,2.00
2022-12-14T11:18:44.446Z,1.63
2022-12-14T11:21:14.214Z,1.50
2022-12-14T11:23:42.653Z,1.58
2022-12-14T11:26:15.584Z,1.92
2022-12-14T11:28:50.103Z,1.60
2022-12-14T11:31:20.224Z,1.70
2022-12-14T11:33:51.490Z,2.20
2022-12-14T11:36:24.228Z,3.95
2022-12-14T11:39:01.206Z,4.60
2022-12-14T11:41:30.148Z,2.75
2022-12-14T11:44:23.014Z,3.00
2022-12-14T11:47:01.651Z,2.42
2022-12-14T11:49:29.753Z,1.80
2022-12-14T11:51:59.128Z,1.98
2022-12-14T11:54:25.722Z,2.20
2022-12-14T11:57:03.033Z,3.00
2022-12-14T11:59:31.950Z,3.17
2022-12-14T12:02:07.898Z,2.47
2022-12-14T12:04:42.405Z,1.50
2022-12-14T12:07:13.275Z,2.28
2022-12-14T12:09:41.407Z,1.98
2022-12-14T12:12:16.426Z,1.80
2022-12-14T12:14:44.617Z,1.58
2022-12-14T12:17:19.817Z,2.00
2022-12-14T12:19:48.265Z,1.98
2022-12-14T12:22:15.760Z,2.97
2022-12-14T12:25:16.273Z,2.50
2022-12-14T12:27:33.087Z,2.80
2022-12-14T12:30:08.385Z,1.77
2022-12-14T12:32:37.582Z,3.05
2022-12-14T12:35:11.789Z,2.10
2022-12-14T12:37:45.092Z,2.75
2022-12-14T12:40:22.308Z,2.25
2022-12-14T12:42:48.928Z,2.15
2022-12-14T12:45:21.571Z,2.17
2022-12-14T12:47:51.338Z,1.97
2022-12-14T12:50:21.592Z,1.90
2022-12-14T12:53:03.048Z,2.30
2022-12-14T12:55:31.747Z,1.70
2022-12-14T12:57:59.201Z,1.83
2022-12-14T13:00:26.390Z,1.92
2022-12-14T13:02:55.247Z,1.95
2022-12-14T13:05:46.174Z,1.67
2022-12-14T13:08:28.713Z,1.90
2022-12-14T13:11:25.007Z,2.05
2022-12-14T13:13:48.906Z,2.72
2022-12-14T13:16:24.743Z,1.95
2022-12-14T13:19:08.971Z,2.97
2022-12-14T13:21:47.980Z,2.33
2022-12-14T13:24:17.838Z,3.53
2022-12-14T13:26:59.034Z,5.78
2022-12-14T13:29:52.989Z,2.85
2022-12-14T13:32:22.172Z,2.17
2022-12-14T13:34:58.062Z,2.42
2022-12-14T13:37:44.824Z,3.25
2022-12-14T13:40:29.728Z,1.15
2022-12-14T13:42:56.173Z,1.30
2022-12-14T13:45:27.874Z,1.33
2022-12-14T13:47:55.518Z,1.45
2022-12-14T13:50:37.160Z,1.35
2022-12-14T13:53:18.870Z,1.65
2022-12-14T13:55:49.642Z,1.08
2022-12-14T13:58:18.990Z,1.65
2022-12-14T14:00:45.740Z,1.38
2022-12-14T14:03:45.045Z,1.67
2022-12-14T14:06:11.577Z,1.85
2022-12-14T14:08:42.796Z,1.67
2022-12-14T14:14:15.551Z,1.75
2022-12-14T14:16:44.585Z,1.08
2022-12-14T14:19:17.955Z,1.17
2022-12-14T14:22:24.885Z,1.35
2022-12-14T14:24:52.233Z,1.10
2022-12-14T14:27:19.934Z,1.48
2022-12-14T14:29:47.469Z,1.50
2022-12-14T14:32:28.357Z,1.58
2022-12-14T14:34:54.998Z,1.02
2022-12-14T14:37:21.648Z,1.58
2022-12-14T14:40:18.812Z,1.13
2022-12-14T14:42:51.622Z,1.20
2022-12-14T14:45:36.730Z,1.10
2022-12-14T14:48:10.997Z,2.08
2022-12-14T14:50:38.508Z,1.90
2022-12-14T14:53:12.908Z,1.50
2022-12-14T14:55:55.781Z,1.23
2022-12-14T14:58:28.523Z,2.20
2022-12-14T15:01:15.248Z,1.90
2022-12-14T15:03:45.129Z,1.42
2022-12-14T15:06:16.366Z,1.40
2022-12-14T15:08:47.905Z,1.88
2022-12-14T15:11:19.386Z,1.52
2022-12-14T15:13:57.355Z,1.38
2022-12-14T15:16:31.780Z,1.60
2022-12-14T15:19:17.210Z,1.65
2022-12-14T15:21:43.735Z,1.92
2022-12-14T15:24:13.076Z,2.00
2022-12-14T15:26:39.612Z,1.15
2022-12-14T15:29:06.168Z,1.77
2022-12-14T15:31:34.566Z,2.03
2022-12-14T15:34:01.746Z,1.73
2022-12-14T15:36:33.568Z,1.58
2022-12-14T15:39:00.161Z,1.88
2022-12-14T15:41:32.421Z,1.98
2022-12-14T15:44:00.387Z,2.30
2022-12-14T15:46:31.836Z,3.25
2022-12-14T15:49:03.684Z,2.28
2022-12-14T15:51:35.515Z,2.25
2022-12-14T15:54:03.590Z,2.30
2022-12-14T15:56:36.885Z,2.40
2022-12-14T15:59:23.528Z,2.42
2022-12-14T16:01:58.789Z,1.50
2022-12-14T16:04:29.221Z,1.67
2022-12-14T16:07:08.488Z,1.52
2022-12-14T16:09:38.218Z,1.67
2022-12-14T16:12:07.614Z,1.63
2022-12-14T16:14:46.057Z,2.25
2022-12-14T16:17:13.649Z,1.65
2022-12-14T16:19:58.307Z,1.70
2022-12-14T16:22:27.105Z,1.58
2022-12-14T16:24:58.153Z,1.30
2022-12-14T16:27:26.023Z,1.40
2022-12-14T16:30:11.294Z,1.10
2022-12-14T16:32:38.035Z,0.80
2022-12-14T16:35:04.575Z,1.50
2022-12-14T16:37:33.151Z,1.63
2022-12-14T16:40:00.317Z,1.58
2022-12-14T16:42:26.893Z,1.88
2022-12-14T16:44:56.760Z,2.28
2022-12-14T16:47:28.638Z,2.50
2022-12-14T16:50:00.154Z,2.50
2022-12-14T16:52:30.763Z,1.70
2022-12-14T16:55:06.149Z,2.03
2022-12-14T16:57:32.809Z,1.48
2022-12-14T17:00:00.806Z,1.65
2022-12-14T17:02:30.361Z,2.00
2022-12-14T17:04:58.552Z,1.50
2022-12-14T17:07:27.232Z,1.33
2022-12-14T17:09:56.425Z,1.17
2022-12-14T17:12:24.127Z,1.50
2022-12-14T17:14:50.770Z,1.95
2022-12-14T17:17:19.639Z,1.92
2022-12-14T17:19:46.103Z,1.45
2022-12-14T17:22:16.199Z,1.55
2022-12-14T17:24:42.631Z,2.05
2022-12-14T17:27:11.620Z,2.03
2022-12-14T17:29:38.066Z,2.55
2022-12-14T17:32:04.697Z,1.98
2022-12-14T17:34:31.185Z,1.38
2022-12-14T17:36:57.779Z,1.83
2022-12-14T17:39:24.935Z,2.00
2022-12-14T17:41:52.013Z,1.48
2022-12-14T17:44:19.766Z,1.70
2022-12-14T17:46:48.810Z,1.50
2022-12-14T17:49:16.131Z,1.85
2022-12-14T17:51:44.514Z,2.40
2022-12-14T17:54:18.572Z,1.80
2022-12-14T17:56:46.056Z,1.73
2022-12-14T17:59:12.737Z,2.40
2022-12-14T18:01:40.186Z,1.50
2022-12-14T18:04:08.155Z,1.90
2022-12-14T18:06:35.011Z,2.13
2022-12-14T18:09:01.814Z,2.00
2022-12-14T18:11:28.359Z,2.58
2022-12-14T18:13:55.177Z,1.90
2022-12-14T18:16:22.567Z,2.72
2022-12-14T18:18:49.333Z,2.42
2022-12-14T18:21:19.973Z,2.75
2022-12-14T18:23:47.095Z,1.65
2022-12-14T18:26:20.958Z,1.55
2022-12-14T18:28:51.522Z,1.77
2022-12-14T18:31:26.525Z,1.63
2022-12-14T18:33:53.137Z,2.47
2022-12-14T18:36:21.516Z,1.80
2022-12-14T18:38:49.478Z,3.05
2022-12-14T18:41:17.650Z,1.70
2022-12-14T18:43:44.779Z,2.13
2022-12-14T18:46:11.488Z,2.60
2022-12-14T18:48:38.678Z,1.90
2022-12-14T18:51:06.109Z,2.45
2022-12-14T18:53:34.128Z,2.55
2022-12-14T18:56:01.842Z,2.22
2022-12-14T18:58:29.201Z,3.17
2022-12-14T19:00:57.120Z,1.92
2022-12-14T19:03:24.533Z,2.42
2022-12-14T19:05:52.612Z,2.42
2022-12-14T19:08:19.110Z,2.97
2022-12-14T19:10:47.531Z,1.45
2022-12-14T19:13:25.003Z,2.45
2022-12-14T19:15:53.333Z,1.50
2022-12-14T19:18:19.926Z,2.10
2022-12-14T19:20:49.417Z,2.30
2022-12-14T19:23:17.324Z,2.17
2022-12-14T19:25:43.866Z,2.20
2022-12-14T19:28:31.022Z,2.40
2022-12-14T19:30:57.816Z,2.38
2022-12-14T19:33:27.979Z,2.15
2022-12-14T19:35:54.711Z,2.70
2022-12-14T19:38:21.381Z,2.72
2022-12-14T19:41:20.649Z,1.80
2022-12-14T19:43:47.971Z,1.98
2022-12-14T19:46:16.502Z,1.95
2022-12-14T19:48:43.229Z,2.20
2022-12-14T19:51:10.793Z,1.60
2022-12-14T19:53:37.898Z,4.05
2022-12-14T19:56:04.862Z,1.85
2022-12-14T19:58:31.338Z,2.58
2022-12-14T20:00:57.986Z,2.58
2022-12-14T20:03:25.078Z,1.90
2022-12-14T20:05:53.029Z,1.90
2022-12-14T20:08:19.843Z,1.85
2022-12-14T20:10:46.423Z,1.88
2022-12-14T20:13:13.112Z,2.17
2022-12-14T20:15:39.695Z,1.80
2022-12-14T20:18:07.419Z,1.42
2022-12-14T20:20:35.472Z,1.23
2022-12-14T20:23:02.758Z,1.60
2022-12-14T20:25:32.266Z,1.73
2022-12-14T20:27:59.870Z,1.85
2022-12-14T20:30:27.692Z,1.70
2022-12-14T20:32:54.525Z,1.38
2022-12-14T20:35:21.495Z,1.80
2022-12-14T20:37:48.577Z,1.08
2022-12-14T20:40:17.645Z,1.00
2022-12-14T20:42:45.769Z,1.52
2022-12-14T20:45:15.549Z,1.48
2022-12-14T20:47:42.834Z,1.38
2022-12-14T20:50:10.407Z,0.98
2022-12-14T20:52:38.541Z,1.05
2022-12-14T20:55:06.353Z,1.13
2022-12-14T20:57:33.646Z,1.15
2022-12-14T21:00:00.340Z,0.90
2022-12-14T21:02:27.017Z,1.27
2022-12-14T21:04:53.602Z,1.45
2022-12-14T21:07:25.736Z,1.60
2022-12-14T21:09:54.084Z,1.10
2022-12-14T21:12:21.476Z,1.30
2022-12-14T21:14:54.816Z,1.13
2022-12-14T21:17:22.467Z,1.30
2022-12-14T21:19:49.794Z,1.33
2022-12-14T21:22:18.262Z,1.10
2022-12-14T21:25:02.556Z,0.93
2022-12-14T21:27:32.930Z,0.90
2022-12-14T21:30:00.715Z,1.17
2022-12-14T21:32:27.901Z,0.85
2022-12-14T21:34:54.455Z,0.98
2022-12-14T21:37:21.237Z,1.60
2022-12-14T21:39:54.169Z,1.00
2022-12-14T21:42:23.146Z,1.20
2022-12-14T21:44:50.445Z,1.42
2022-12-14T21:47:24.668Z,1.65
2022-12-14T21:49:51.341Z,1.10
2022-12-14T21:52:19.408Z,1.05
2022-12-14T21:54:45.907Z,0.77
2022-12-14T21:57:34.921Z,0.98
2022-12-14T22:00:01.703Z,1.42
2022-12-14T22:02:28.622Z,1.13
2022-12-14T22:04:58.340Z,1.00
2022-12-14T22:07:26.717Z,1.23
2022-12-14T22:09:53.208Z,0.85
2022-12-14T22:12:19.798Z,1.25
2022-12-14T22:14:46.295Z,1.20
2022-12-14T22:17:14.593Z,0.70
2022-12-14T22:19:41.128Z,1.08
2022-12-14T22:22:07.624Z,1.00
2022-12-14T22:24:34.106Z,1.05
2022-12-14T22:27:00.672Z,0.98
2022-12-14T22:29:27.163Z,1.15
2022-12-14T22:31:53.811Z,1.00
2022-12-14T22:34:21.834Z,1.00
2022-12-14T22:36:49.543Z,0.90
2022-12-14T22:39:16.974Z,0.80
2022-12-14T22:41:43.469Z,0.77
2022-12-14T22:44:11.094Z,0.82
2022-12-14T22:46:37.822Z,0.82
2022-12-14T22:49:04.295Z,0.80
2022-12-14T22:51:31.068Z,0.75
2022-12-14T22:53:57.858Z,1.10
2022-12-14T22:56:29.864Z,0.85
2022-12-14T22:59:07.903Z,0.80
2022-12-14T23:01:35.783Z,2.22
2022-12-14T23:04:02.463Z,1.10
2022-12-14T23:06:29.374Z,0.90
2022-12-14T23:09:14.489Z,1.30
2022-12-14T23:11:59.754Z,1.00
2022-12-14T23:14:45.028Z,1.05
2022-12-14T23:17:30.086Z,0.70
2022-12-14T23:20:15.290Z,0.70
2022-12-14T23:23:00.348Z,0.68
2022-12-14T23:25:45.566Z,0.80
2022-12-14T23:28:30.723Z,0.82
2022-12-14T23:31:16.386Z,0.93
2022-12-14T23:34:01.618Z,0.60
2022-12-14T23:36:46.782Z,0.73
2022-12-14T23:39:32.101Z,0.60
2022-12-14T23:42:17.188Z,0.93
2022-12-14T23:45:02.601Z,0.70
2022-12-14T23:47:49.433Z,0.50
2022-12-14T23:50:34.614Z,0.60
2022-12-14T23:53:24.292Z,0.70
2022-12-14T23:56:09.554Z,0.60
2022-12-14T23:58:54.706Z,0.80
